Time;durP1;ratioP1;P1;durP2;ratioP2;P2;SDS_P1;SDS_P2;PMS_P1;PMS_P2;Temp;Humidity;BMP_temperature;BMP_pressure;BME280_temperature;BME280_humidity;BME280_pressure;Samples;Min_cycle;Max_cycle;Signal;HPM_P1;HPM_P2
2022/12/07 00:01:32;;;;;;;26.57;18.87;;;;;;;;;;5070443;28;20493;-47
2022/12/07 00:04:06;;;;;;;25.87;18.33;;;;;;;;;;5070254;28;20943;-47
2022/12/07 00:06:32;;;;;;;23.67;18.30;;;;;;;;;;5070123;28;20433;-48
2022/12/07 00:08:58;;;;;;;24.07;18.97;;;;;;;;;;5070365;28;20458;-47
2022/12/07 00:11:26;;;;;;;25.67;18.03;;;;;;;;;;5070250;28;20532;-47
2022/12/07 00:13:52;;;;;;;25.57;20.00;;;;;;;;;;5070199;28;20780;-48
2022/12/07 00:16:20;;;;;;;29.33;20.13;;;;;;;;;;5070470;28;20507;-48
2022/12/07 00:18:46;;;;;;;26.93;19.60;;;;;;;;;;5069967;28;20432;-47
2022/12/07 00:21:14;;;;;;;27.00;20.33;;;;;;;;;;5070135;28;20418;-48
2022/12/07 00:23:40;;;;;;;29.77;20.03;;;;;;;;;;5070103;28;20473;-48
2022/12/07 00:26:07;;;;;;;33.03;21.00;;;;;;;;;;5070486;28;20437;-47
2022/12/07 00:28:34;;;;;;;26.53;19.40;;;;;;;;;;5072653;28;20441;-47
2022/12/07 00:31:02;;;;;;;25.63;19.77;;;;;;;;;;5073360;28;20437;-48
2022/12/07 00:33:28;;;;;;;27.90;19.10;;;;;;;;;;5073491;28;21082;-47
2022/12/07 00:35:55;;;;;;;23.60;19.03;;;;;;;;;;5073642;28;20524;-47
2022/12/07 00:38:23;;;;;;;26.27;18.27;;;;;;;;;;5073811;28;20441;-47
2022/12/07 00:40:54;;;;;;;30.00;19.43;;;;;;;;;;5073679;28;20430;-47
2022/12/07 00:43:20;;;;;;;24.90;18.37;;;;;;;;;;5073387;28;20472;-47
2022/12/07 00:45:47;;;;;;;27.23;19.50;;;;;;;;;;5073352;28;20430;-47
2022/12/07 00:48:13;;;;;;;21.20;17.53;;;;;;;;;;5073500;28;20434;-47
2022/12/07 00:50:39;;;;;;;23.90;19.37;;;;;;;;;;5073410;28;20500;-47
2022/12/07 00:53:05;;;;;;;23.20;18.20;;;;;;;;;;5073444;28;20220;-48
2022/12/07 00:55:33;;;;;;;23.00;17.53;;;;;;;;;;5073440;28;20249;-48
2022/12/07 00:57:59;;;;;;;24.23;18.37;;;;;;;;;;5073532;28;20206;-47
2022/12/07 01:00:25;;;;;;;24.40;17.97;;;;;;;;;;5073392;28;20442;-47
2022/12/07 01:02:52;;;;;;;19.87;17.20;;;;;;;;;;5073194;28;20286;-47
2022/12/07 01:05:18;;;;;;;22.57;16.50;;;;;;;;;;5073102;28;20788;-47
2022/12/07 01:07:46;;;;;;;20.03;17.27;;;;;;;;;;5072961;28;20196;-47
2022/12/07 01:10:12;;;;;;;21.17;15.97;;;;;;;;;;5069115;28;20991;-49
2022/12/07 01:12:38;;;;;;;17.33;14.63;;;;;;;;;;5072920;28;20438;-49
2022/12/07 01:15:04;;;;;;;20.73;16.77;;;;;;;;;;5073350;28;20278;-49
2022/12/07 01:17:30;;;;;;;17.37;14.70;;;;;;;;;;5072860;28;20448;-48
2022/12/07 01:19:58;;;;;;;18.23;16.33;;;;;;;;;;5072621;28;20445;-49
2022/12/07 01:22:24;;;;;;;21.93;15.80;;;;;;;;;;5072879;28;20440;-48
2022/12/07 01:24:50;;;;;;;16.40;14.10;;;;;;;;;;5072742;28;20426;-49
2022/12/07 01:27:16;;;;;;;16.93;14.50;;;;;;;;;;5072500;28;20665;-48
2022/12/07 01:29:42;;;;;;;17.87;13.87;;;;;;;;;;5072643;28;20533;-48
2022/12/07 01:32:08;;;;;;;16.43;14.27;;;;;;;;;;5072963;28;20525;-48
2022/12/07 01:34:34;;;;;;;18.67;13.80;;;;;;;;;;5072479;28;20227;-48
2022/12/07 01:37:01;;;;;;;15.67;13.63;;;;;;;;;;5072500;28;20801;-48
2022/12/07 01:39:27;;;;;;;15.93;14.27;;;;;;;;;;5071911;28;20258;-48
2022/12/07 01:41:53;;;;;;;15.90;13.03;;;;;;;;;;5072554;28;20948;-48
2022/12/07 01:44:21;;;;;;;14.17;12.67;;;;;;;;;;5072295;28;20444;-48
2022/12/07 01:46:47;;;;;;;15.67;13.47;;;;;;;;;;5072510;28;20658;-48
2022/12/07 01:49:16;;;;;;;14.87;13.27;;;;;;;;;;5072488;28;20430;-48
2022/12/07 01:51:43;;;;;;;14.60;12.73;;;;;;;;;;5072084;28;21000;-48
2022/12/07 01:54:11;;;;;;;16.13;13.20;;;;;;;;;;5072245;28;21050;-50
2022/12/07 01:56:38;;;;;;;15.40;13.80;;;;;;;;;;5071993;28;20441;-48
2022/12/07 01:59:04;;;;;;;17.33;13.63;;;;;;;;;;5072227;28;20446;-48
2022/12/07 02:01:30;;;;;;;18.07;13.90;;;;;;;;;;5072194;28;20495;-48
2022/12/07 02:03:56;;;;;;;17.27;14.50;;;;;;;;;;5071800;28;20222;-48
2022/12/07 02:06:24;;;;;;;16.43;14.30;;;;;;;;;;5071998;28;20444;-49
2022/12/07 02:08:50;;;;;;;14.43;12.87;;;;;;;;;;5071559;28;20560;-48
2022/12/07 02:11:17;;;;;;;12.33;11.03;;;;;;;;;;5071975;28;20430;-48
2022/12/07 02:13:45;;;;;;;14.30;12.80;;;;;;;;;;5071775;28;20488;-48
2022/12/07 02:16:18;;;;;;;14.60;12.57;;;;;;;;;;5071579;28;20490;-49
2022/12/07 02:18:48;;;;;;;15.17;13.10;;;;;;;;;;5071501;28;20434;-48
2022/12/07 02:21:18;;;;;;;14.83;12.63;;;;;;;;;;5071960;28;20509;-48
2022/12/07 02:24:03;;;;;;;14.93;13.17;;;;;;;;;;5071387;28;20807;-48
2022/12/07 02:26:39;;;;;;;15.17;12.33;;;;;;;;;;5071472;28;20812;-48
2022/12/07 02:29:11;;;;;;;12.80;11.13;;;;;;;;;;5071729;28;20456;-48
2022/12/07 02:31:39;;;;;;;14.37;12.07;;;;;;;;;;5071474;28;20437;-48
2022/12/07 02:34:09;;;;;;;14.47;12.77;;;;;;;;;;5071535;28;20878;-48
2022/12/07 02:36:39;;;;;;;14.03;12.60;;;;;;;;;;5071275;28;20520;-48
2022/12/07 02:39:07;;;;;;;14.77;12.50;;;;;;;;;;5071348;28;20473;-48
2022/12/07 02:41:35;;;;;;;15.50;13.30;;;;;;;;;;5071359;28;20803;-48
2022/12/07 02:44:03;;;;;;;16.57;12.67;;;;;;;;;;5071340;28;20477;-48
2022/12/07 02:46:31;;;;;;;15.33;12.07;;;;;;;;;;5071115;28;20503;-48
2022/12/07 02:48:59;;;;;;;14.20;11.93;;;;;;;;;;5071390;28;20438;-48
2022/12/07 02:51:26;;;;;;;14.53;12.87;;;;;;;;;;5071073;28;20531;-48
2022/12/07 02:53:52;;;;;;;14.00;12.33;;;;;;;;;;5071046;28;20484;-48
2022/12/07 02:56:22;;;;;;;14.90;12.73;;;;;;;;;;5071272;28;20472;-48
2022/12/07 02:58:55;;;;;;;15.00;12.70;;;;;;;;;;5070999;28;20809;-48
2022/12/07 03:01:26;;;;;;;14.20;12.73;;;;;;;;;;5071270;28;20437;-48
2022/12/07 03:03:59;;;;;;;13.93;11.40;;;;;;;;;;5071045;28;20441;-47
2022/12/07 03:06:28;;;;;;;12.40;11.10;;;;;;;;;;5070986;28;20499;-48
2022/12/07 03:08:58;;;;;;;16.53;12.70;;;;;;;;;;5071006;28;20465;-47
2022/12/07 03:11:26;;;;;;;14.50;11.43;;;;;;;;;;5071004;28;20438;-48
2022/12/07 03:13:56;;;;;;;13.03;11.43;;;;;;;;;;5070916;28;20524;-48
2022/12/07 03:16:25;;;;;;;13.37;11.03;;;;;;;;;;5070883;28;20438;-48
2022/12/07 03:18:52;;;;;;;12.67;11.30;;;;;;;;;;5070893;28;20504;-48
2022/12/07 03:21:21;;;;;;;12.87;10.43;;;;;;;;;;5070711;28;20441;-48
2022/12/07 03:23:50;;;;;;;12.70;10.47;;;;;;;;;;5070712;28;20854;-48
2022/12/07 03:26:18;;;;;;;12.87;9.97;;;;;;;;;;5070775;28;20445;-49
2022/12/07 03:28:45;;;;;;;11.80;10.07;;;;;;;;;;5070490;28;20446;-48
2022/12/07 03:31:14;;;;;;;11.73;10.13;;;;;;;;;;5070699;28;20434;-48
2022/12/07 03:33:42;;;;;;;12.77;10.70;;;;;;;;;;5070660;28;20479;-49
2022/12/07 03:36:11;;;;;;;12.07;9.97;;;;;;;;;;5070651;28;20434;-48
2022/12/07 03:38:41;;;;;;;12.87;11.50;;;;;;;;;;5070715;28;20438;-48
2022/12/07 03:41:08;;;;;;;12.37;10.87;;;;;;;;;;5070988;28;20496;-48
2022/12/07 03:43:35;;;;;;;13.50;11.60;;;;;;;;;;5070742;28;20425;-51
2022/12/07 03:46:07;;;;;;;15.00;12.07;;;;;;;;;;5070533;28;20788;-48
2022/12/07 03:48:35;;;;;;;14.93;11.60;;;;;;;;;;5070529;28;20437;-48
2022/12/07 03:51:06;;;;;;;14.57;11.10;;;;;;;;;;5070469;28;20560;-49
2022/12/07 03:53:35;;;;;;;12.87;10.87;;;;;;;;;;5070586;28;20556;-48
2022/12/07 03:56:03;;;;;;;14.17;11.33;;;;;;;;;;5070466;28;20457;-49
2022/12/07 03:58:30;;;;;;;11.93;10.37;;;;;;;;;;5070686;28;20444;-49
2022/12/07 04:00:56;;;;;;;13.30;10.87;;;;;;;;;;5070264;28;20868;-49
2022/12/07 04:03:22;;;;;;;11.17;9.80;;;;;;;;;;5072632;28;20422;-49
2022/12/07 04:05:48;;;;;;;11.10;9.23;;;;;;;;;;5074200;28;20446;-49
2022/12/07 04:08:14;;;;;;;12.53;10.10;;;;;;;;;;5074259;28;20548;-49
2022/12/07 04:10:40;;;;;;;11.87;9.50;;;;;;;;;;5074204;28;20513;-49
2022/12/07 04:13:07;;;;;;;13.43;9.33;;;;;;;;;;5074145;28;20228;-49
2022/12/07 04:15:33;;;;;;;12.60;9.00;;;;;;;;;;5074042;28;20214;-49
2022/12/07 04:18:00;;;;;;;15.83;9.33;;;;;;;;;;5073844;28;20461;-49
2022/12/07 04:20:26;;;;;;;10.57;8.20;;;;;;;;;;5074075;28;20426;-49
2022/12/07 04:22:52;;;;;;;11.43;8.37;;;;;;;;;;5073888;28;20430;-49
2022/12/07 04:25:18;;;;;;;11.63;7.53;;;;;;;;;;5073865;28;20436;-48
2022/12/07 04:27:44;;;;;;;8.67;6.83;;;;;;;;;;5073933;28;20533;-49
2022/12/07 04:30:11;;;;;;;10.37;7.43;;;;;;;;;;5073775;28;20513;-49
2022/12/07 04:32:37;;;;;;;10.07;7.67;;;;;;;;;;5073661;28;20569;-49
2022/12/07 04:35:04;;;;;;;8.40;7.03;;;;;;;;;;5073481;28;20820;-50
2022/12/07 04:37:30;;;;;;;11.13;7.13;;;;;;;;;;5073885;28;20512;-49
2022/12/07 04:39:56;;;;;;;9.23;7.03;;;;;;;;;;5073504;28;20552;-49
2022/12/07 04:42:22;;;;;;;9.43;6.63;;;;;;;;;;5073615;28;20214;-49
2022/12/07 04:44:48;;;;;;;9.77;6.67;;;;;;;;;;5073289;28;20230;-49
2022/12/07 04:47:15;;;;;;;10.00;7.07;;;;;;;;;;5073529;28;20731;-49
2022/12/07 04:49:41;;;;;;;9.90;6.30;;;;;;;;;;5073355;28;20204;-48
2022/12/07 04:52:07;;;;;;;10.73;6.67;;;;;;;;;;5073377;28;20822;-48
2022/12/07 04:54:33;;;;;;;6.87;5.53;;;;;;;;;;5073305;28;20227;-49
2022/12/07 04:56:59;;;;;;;8.73;6.57;;;;;;;;;;5073239;28;20438;-50
2022/12/07 04:59:25;;;;;;;8.67;6.17;;;;;;;;;;5073268;28;20604;-49
2022/12/07 05:01:51;;;;;;;8.73;6.07;;;;;;;;;;5073016;28;20557;-48
2022/12/07 05:04:19;;;;;;;8.13;5.60;;;;;;;;;;5073474;28;20797;-48
2022/12/07 05:06:45;;;;;;;8.87;6.00;;;;;;;;;;5073028;28;20448;-48
2022/12/07 05:09:12;;;;;;;8.30;5.83;;;;;;;;;;5073082;28;20466;-48
2022/12/07 05:11:38;;;;;;;8.97;5.97;;;;;;;;;;5073159;28;20266;-48
2022/12/07 05:14:05;;;;;;;8.67;5.87;;;;;;;;;;5071865;28;20485;-48
2022/12/07 05:16:31;;;;;;;7.33;5.93;;;;;;;;;;5073002;28;20642;-48
2022/12/07 05:18:57;;;;;;;8.77;5.87;;;;;;;;;;5073379;28;20441;-48
2022/12/07 05:21:24;;;;;;;7.93;5.60;;;;;;;;;;5073066;28;20525;-48
2022/12/07 05:23:51;;;;;;;9.90;6.17;;;;;;;;;;5072778;28;20525;-48
2022/12/07 05:26:17;;;;;;;7.33;5.93;;;;;;;;;;5072849;28;20422;-48
2022/12/07 05:28:43;;;;;;;7.73;5.10;;;;;;;;;;5072738;28;20987;-47
2022/12/07 05:31:09;;;;;;;7.80;5.43;;;;;;;;;;5073130;28;20856;-47
2022/12/07 05:33:35;;;;;;;10.87;5.60;;;;;;;;;;5072628;28;20992;-48
2022/12/07 05:36:05;;;;;;;7.10;5.37;;;;;;;;;;5072625;28;20819;-48
2022/12/07 05:38:32;;;;;;;9.63;5.27;;;;;;;;;;5072715;28;20457;-49
2022/12/07 05:41:01;;;;;;;9.00;5.47;;;;;;;;;;5072390;28;20958;-48
2022/12/07 05:43:27;;;;;;;6.50;4.80;;;;;;;;;;5072612;28;20500;-48
2022/12/07 05:45:53;;;;;;;6.00;4.87;;;;;;;;;;5072264;28;20438;-48
2022/12/07 05:48:19;;;;;;;7.03;5.10;;;;;;;;;;5072116;28;20558;-48
2022/12/07 05:50:47;;;;;;;7.33;5.20;;;;;;;;;;5072096;28;20235;-48
2022/12/07 05:53:13;;;;;;;7.07;4.30;;;;;;;;;;5072000;28;20542;-48
2022/12/07 05:55:41;;;;;;;6.33;4.63;;;;;;;;;;5072614;28;20438;-48
2022/12/07 06:00:51;;;;;;;7.57;4.53;;;;;;;;;;5072011;28;20926;-48
2022/12/07 06:03:17;;;;;;;7.93;4.60;;;;;;;;;;5072112;28;20441;-48
2022/12/07 06:05:43;;;;;;;6.77;4.47;;;;;;;;;;5071744;28;20464;-48
2022/12/07 06:08:09;;;;;;;7.10;4.50;;;;;;;;;;5071923;28;20476;-48
2022/12/07 06:10:35;;;;;;;6.53;4.13;;;;;;;;;;5071530;28;20670;-48
2022/12/07 06:13:03;;;;;;;6.10;3.77;;;;;;;;;;5071383;28;20978;-49
2022/12/07 06:15:29;;;;;;;6.60;3.90;;;;;;;;;;5071685;28;20452;-49
2022/12/07 06:17:55;;;;;;;9.80;3.80;;;;;;;;;;5071374;28;20517;-48
2022/12/07 06:20:21;;;;;;;5.13;3.20;;;;;;;;;;5071299;28;20916;-49
2022/12/07 06:22:47;;;;;;;6.80;3.57;;;;;;;;;;5071179;28;20200;-49
2022/12/07 06:25:13;;;;;;;8.03;3.47;;;;;;;;;;5071174;28;20241;-49
2022/12/07 06:27:39;;;;;;;6.27;3.27;;;;;;;;;;5071351;28;20540;-49
2022/12/07 06:30:08;;;;;;;7.17;3.60;;;;;;;;;;5071365;28;20428;-49
2022/12/07 06:32:34;;;;;;;8.03;3.17;;;;;;;;;;5071240;28;20615;-49
2022/12/07 06:35:00;;;;;;;5.20;2.90;;;;;;;;;;5071160;28;20834;-49
2022/12/07 06:37:26;;;;;;;8.67;3.20;;;;;;;;;;5071131;28;20454;-49
2022/12/07 06:39:52;;;;;;;5.37;2.87;;;;;;;;;;5071236;28;20437;-50
2022/12/07 06:42:18;;;;;;;5.43;2.83;;;;;;;;;;5071372;28;20467;-48
2022/12/07 06:44:44;;;;;;;6.30;2.80;;;;;;;;;;5071071;28;20591;-48
2022/12/07 06:47:12;;;;;;;5.33;2.40;;;;;;;;;;5071303;28;20252;-48
2022/12/07 06:49:38;;;;;;;5.40;2.60;;;;;;;;;;5071117;28;20254;-48
2022/12/07 06:52:05;;;;;;;3.83;2.30;;;;;;;;;;5070934;28;20815;-48
2022/12/07 06:54:31;;;;;;;4.50;2.50;;;;;;;;;;5071057;28;20489;-49
2022/12/07 06:56:57;;;;;;;4.90;2.60;;;;;;;;;;5071233;28;20463;-49
2022/12/07 06:59:23;;;;;;;3.93;2.53;;;;;;;;;;5070958;28;20438;-50
2022/12/07 07:01:49;;;;;;;6.27;2.50;;;;;;;;;;5070754;28;20514;-48
2022/12/07 07:04:16;;;;;;;6.27;2.57;;;;;;;;;;5070944;28;20674;-48
2022/12/07 07:06:42;;;;;;;2.90;1.97;;;;;;;;;;5070784;28;20446;-49
2022/12/07 07:09:09;;;;;;;5.60;2.77;;;;;;;;;;5070862;28;20460;-49
2022/12/07 07:11:35;;;;;;;3.63;1.83;;;;;;;;;;5072197;28;20876;-49
2022/12/07 07:14:02;;;;;;;3.10;2.27;;;;;;;;;;5070729;28;20584;-48
2022/12/07 07:16:29;;;;;;;5.60;2.23;;;;;;;;;;5070796;28;20274;-49
2022/12/07 07:18:54;;;;;;;4.17;2.20;;;;;;;;;;5070576;28;20464;-49
2022/12/07 07:21:22;;;;;;;4.87;2.13;;;;;;;;;;5070788;28;20940;-49
2022/12/07 07:23:48;;;;;;;5.40;2.83;;;;;;;;;;5070689;28;20188;-49
2022/12/07 07:26:14;;;;;;;3.03;2.03;;;;;;;;;;5070756;28;20994;-49
2022/12/07 07:28:40;;;;;;;3.20;2.20;;;;;;;;;;5070626;28;20195;-49
2022/12/07 07:31:06;;;;;;;6.60;2.30;;;;;;;;;;5070561;28;20541;-49
2022/12/07 07:33:32;;;;;;;4.77;2.03;;;;;;;;;;5070742;28;20713;-48
2022/12/07 07:35:58;;;;;;;4.30;2.30;;;;;;;;;;5070643;28;20533;-48
2022/12/07 07:38:25;;;;;;;4.63;2.40;;;;;;;;;;5073204;28;20902;-48
2022/12/07 07:40:51;;;;;;;4.20;2.20;;;;;;;;;;5074533;28;20229;-48
2022/12/07 07:43:17;;;;;;;4.83;2.03;;;;;;;;;;5074669;28;20541;-48
2022/12/07 07:45:45;;;;;;;5.60;2.60;;;;;;;;;;5074724;28;20204;-49
2022/12/07 07:48:11;;;;;;;5.77;2.63;;;;;;;;;;5074651;28;20518;-49
2022/12/07 07:50:37;;;;;;;4.20;1.93;;;;;;;;;;5074440;28;20987;-49
2022/12/07 07:53:03;;;;;;;5.93;2.17;;;;;;;;;;5074567;28;20238;-49
2022/12/07 07:55:30;;;;;;;6.47;2.13;;;;;;;;;;5074335;28;20433;-49
2022/12/07 07:57:56;;;;;;;4.90;2.30;;;;;;;;;;5074317;28;20956;-49
2022/12/07 08:00:22;;;;;;;2.43;1.63;;;;;;;;;;5068515;28;20959;-47
2022/12/07 08:02:48;;;;;;;4.47;2.47;;;;;;;;;;5074302;28;20775;-47
2022/12/07 08:05:14;;;;;;;6.97;2.00;;;;;;;;;;5074564;28;20499;-46
2022/12/07 08:07:41;;;;;;;3.50;2.10;;;;;;;;;;5074130;28;20558;-46
2022/12/07 08:10:10;;;;;;;5.80;1.90;;;;;;;;;;5073735;28;20522;-46
2022/12/07 08:13:10;;;;;;;4.03;1.90;;;;;;;;;;5073353;28;20484;-47
2022/12/07 08:15:25;;;;;;;3.60;1.90;;;;;;;;;;5073625;28;20827;-46
2022/12/07 08:17:51;;;;;;;3.07;2.00;;;;;;;;;;5073861;28;20441;-46
2022/12/07 08:20:17;;;;;;;5.33;2.20;;;;;;;;;;5074082;28;20436;-46
2022/12/07 08:22:43;;;;;;;3.93;1.80;;;;;;;;;;5073934;28;20567;-46
2022/12/07 08:25:09;;;;;;;5.90;2.03;;;;;;;;;;5073357;28;20934;-46
2022/12/07 08:27:35;;;;;;;2.93;1.70;;;;;;;;;;5074051;28;20195;-45
2022/12/07 08:30:02;;;;;;;4.93;1.77;;;;;;;;;;5073730;28;20265;-45
2022/12/07 08:32:28;;;;;;;3.80;1.80;;;;;;;;;;5073834;28;20257;-46
2022/12/07 08:34:54;;;;;;;3.57;1.90;;;;;;;;;;5071229;28;20509;-46
2022/12/07 08:37:20;;;;;;;5.10;1.90;;;;;;;;;;5071979;28;20237;-46
2022/12/07 08:39:46;;;;;;;4.27;1.93;;;;;;;;;;5073382;28;20240;-45
2022/12/07 08:42:12;;;;;;;2.70;1.60;;;;;;;;;;5073679;28;20192;-47
2022/12/07 08:44:40;;;;;;;4.67;2.10;;;;;;;;;;5073631;28;20599;-47
2022/12/07 08:47:08;;;;;;;1.93;1.53;;;;;;;;;;5073324;28;20200;-46
2022/12/07 08:49:36;;;;;;;3.77;1.77;;;;;;;;;;5073455;28;20449;-47
2022/12/07 08:52:04;;;;;;;1.60;1.40;;;;;;;;;;5073545;28;20539;-46
2022/12/07 08:54:30;;;;;;;2.17;1.53;;;;;;;;;;5073180;28;20493;-47
2022/12/07 08:56:57;;;;;;;2.23;1.50;;;;;;;;;;5073405;28;20513;-46
2022/12/07 08:59:23;;;;;;;3.03;1.83;;;;;;;;;;5073572;28;20466;-47
2022/12/07 09:01:49;;;;;;;3.43;1.63;;;;;;;;;;5073186;28;20491;-47
2022/12/07 09:04:16;;;;;;;3.33;1.40;;;;;;;;;;5073284;28;20437;-47
2022/12/07 09:06:42;;;;;;;2.00;1.37;;;;;;;;;;5073045;28;20951;-47
2022/12/07 09:09:09;;;;;;;2.90;1.60;;;;;;;;;;5073092;28;20470;-47
2022/12/07 09:11:35;;;;;;;3.50;1.70;;;;;;;;;;5072992;28;20282;-46
2022/12/07 09:14:01;;;;;;;4.10;1.60;;;;;;;;;;5072864;28;20501;-47
2022/12/07 09:16:28;;;;;;;4.93;1.90;;;;;;;;;;5072873;28;20199;-46
2022/12/07 09:18:54;;;;;;;3.00;1.50;;;;;;;;;;5073128;28;20206;-47
2022/12/07 09:21:21;;;;;;;8.20;1.17;;;;;;;;;;5073075;28;20274;-47
2022/12/07 09:23:47;;;;;;;1.93;1.20;;;;;;;;;;5072647;28;20200;-48
2022/12/07 09:26:13;;;;;;;2.17;1.27;;;;;;;;;;5072995;28;20203;-47
2022/12/07 09:28:40;;;;;;;3.00;1.40;;;;;;;;;;5072626;28;20691;-46
2022/12/07 09:31:06;;;;;;;2.00;1.20;;;;;;;;;;5072490;28;20650;-47
2022/12/07 09:33:32;;;;;;;1.93;1.47;;;;;;;;;;5072751;28;20227;-47
2022/12/07 09:35:58;;;;;;;4.07;1.50;;;;;;;;;;5072727;28;20203;-47
2022/12/07 09:38:26;;;;;;;4.30;1.60;;;;;;;;;;5073235;28;20540;-47
2022/12/07 09:40:52;;;;;;;3.17;1.40;;;;;;;;;;5072394;28;20610;-47
2022/12/07 09:43:20;;;;;;;6.37;1.70;;;;;;;;;;5072564;28;20203;-47
2022/12/07 09:45:47;;;;;;;5.63;1.87;;;;;;;;;;5072217;28;20196;-47
2022/12/07 09:48:17;;;;;;;2.67;1.63;;;;;;;;;;5072479;28;20195;-47
2022/12/07 09:50:43;;;;;;;3.80;1.53;;;;;;;;;;5072264;28;20255;-47
2022/12/07 09:53:14;;;;;;;2.93;1.67;;;;;;;;;;5072163;28;20249;-47
2022/12/07 09:55:41;;;;;;;4.70;1.83;;;;;;;;;;5072214;28;20265;-47
2022/12/07 09:58:12;;;;;;;4.10;2.20;;;;;;;;;;5072214;28;20219;-47
2022/12/07 10:00:38;;;;;;;5.90;2.27;;;;;;;;;;5071517;28;20200;-46
2022/12/07 10:03:05;;;;;;;2.83;2.13;;;;;;;;;;5072035;28;20273;-46
2022/12/07 10:05:32;;;;;;;4.00;2.30;;;;;;;;;;5072350;28;20201;-46
2022/12/07 10:07:58;;;;;;;4.10;2.33;;;;;;;;;;5071799;28;20196;-45
2022/12/07 10:10:25;;;;;;;5.43;2.30;;;;;;;;;;5071670;28;20198;-45
2022/12/07 10:12:58;;;;;;;7.30;2.33;;;;;;;;;;5071968;28;20206;-45
2022/12/07 10:15:24;;;;;;;4.43;1.90;;;;;;;;;;5071763;28;20314;-46
2022/12/07 10:17:51;;;;;;;4.47;2.60;;;;;;;;;;5071665;28;20272;-46
2022/12/07 10:20:20;;;;;;;5.50;2.43;;;;;;;;;;5071860;28;20291;-46
2022/12/07 10:23:02;;;;;;;3.47;2.20;;;;;;;;;;5071723;28;20437;-46
2022/12/07 10:25:32;;;;;;;4.80;2.60;;;;;;;;;;5071779;28;20191;-46
2022/12/07 10:28:00;;;;;;;8.80;2.90;;;;;;;;;;5071741;28;20249;-45
2022/12/07 10:30:27;;;;;;;4.57;2.47;;;;;;;;;;5071559;28;20497;-45
2022/12/07 10:32:53;;;;;;;3.60;2.90;;;;;;;;;;5071479;28;20492;-46
2022/12/07 10:35:21;;;;;;;3.37;2.17;;;;;;;;;;5071310;28;20756;-46
2022/12/07 10:37:47;;;;;;;3.10;1.90;;;;;;;;;;5071233;28;20434;-46
2022/12/07 10:40:24;;;;;;;4.47;1.90;;;;;;;;;;5071131;28;20495;-46
2022/12/07 10:43:02;;;;;;;2.90;1.90;;;;;;;;;;5071015;28;20650;-46
2022/12/07 10:45:28;;;;;;;1.50;1.40;;;;;;;;;;5071082;28;20887;-47
2022/12/07 10:48:01;;;;;;;1.93;1.47;;;;;;;;;;5071106;28;20445;-47
2022/12/07 10:50:34;;;;;;;2.97;1.90;;;;;;;;;;5070920;28;20242;-46
2022/12/07 10:53:10;;;;;;;4.03;1.50;;;;;;;;;;5071291;28;20529;-46
2022/12/07 10:55:45;;;;;;;1.80;1.57;;;;;;;;;;5071087;28;20564;-46
2022/12/07 10:58:28;;;;;;;2.83;1.70;;;;;;;;;;5070711;28;20441;-47
2022/12/07 11:00:58;;;;;;;3.73;1.90;;;;;;;;;;5070661;28;20438;-48
2022/12/07 11:03:35;;;;;;;3.13;1.70;;;;;;;;;;5070931;28;20434;-46
2022/12/07 11:06:05;;;;;;;3.13;1.60;;;;;;;;;;5071040;28;20199;-47
2022/12/07 11:08:40;;;;;;;2.83;1.57;;;;;;;;;;5070780;28;20716;-47
2022/12/07 11:11:09;;;;;;;6.33;2.20;;;;;;;;;;5071015;28;20201;-47
2022/12/07 11:13:42;;;;;;;3.63;1.87;;;;;;;;;;5069899;28;20426;-48
2022/12/07 11:16:17;;;;;;;3.30;2.00;;;;;;;;;;5070701;28;20217;-47
2022/12/07 11:18:49;;;;;;;5.30;2.20;;;;;;;;;;5070555;28;20947;-49
2022/12/07 11:21:20;;;;;;;3.93;2.00;;;;;;;;;;5070827;28;20672;-50
2022/12/07 11:23:48;;;;;;;3.00;1.90;;;;;;;;;;5070574;28;20483;-48
2022/12/07 11:26:21;;;;;;;3.47;1.70;;;;;;;;;;5071096;28;20438;-48
2022/12/07 11:28:59;;;;;;;5.33;2.40;;;;;;;;;;5070915;28;20290;-48
2022/12/07 11:31:30;;;;;;;2.93;1.73;;;;;;;;;;5070804;28;20203;-48
2022/12/07 11:34:01;;;;;;;4.57;2.20;;;;;;;;;;5070356;28;20227;-48
2022/12/07 11:36:33;;;;;;;3.03;1.60;;;;;;;;;;5068812;28;20657;-48
2022/12/07 11:39:02;;;;;;;8.37;1.93;;;;;;;;;;5070564;28;20214;-48
2022/12/07 11:41:30;;;;;;;2.67;1.57;;;;;;;;;;5070710;28;20192;-47
2022/12/07 11:44:00;;;;;;;2.33;1.50;;;;;;;;;;5070255;28;20198;-49
2022/12/07 11:46:28;;;;;;;4.90;1.93;;;;;;;;;;5070557;28;20203;-47
2022/12/07 11:48:59;;;;;;;5.07;1.97;;;;;;;;;;5070453;28;20195;-48
2022/12/07 11:51:26;;;;;;;3.73;1.97;;;;;;;;;;5070216;28;20272;-48
2022/12/07 11:53:53;;;;;;;3.30;1.63;;;;;;;;;;5070161;28;20426;-48
2022/12/07 11:56:21;;;;;;;4.73;1.80;;;;;;;;;;5070228;28;20195;-47
2022/12/07 11:58:49;;;;;;;4.50;1.80;;;;;;;;;;5070241;28;20200;-48
2022/12/07 12:01:22;;;;;;;4.63;1.97;;;;;;;;;;5070332;28;20296;-48
2022/12/07 12:03:50;;;;;;;6.37;2.10;;;;;;;;;;5070080;28;20203;-48
2022/12/07 12:06:16;;;;;;;3.70;1.93;;;;;;;;;;5069945;28;20199;-47
2022/12/07 12:08:45;;;;;;;4.43;1.80;;;;;;;;;;5069889;28;20761;-49
2022/12/07 12:11:17;;;;;;;3.93;1.83;;;;;;;;;;5070362;28;20249;-48
2022/12/07 12:13:55;;;;;;;2.17;1.47;;;;;;;;;;5070187;28;20310;-48
2022/12/07 12:16:33;;;;;;;5.80;1.90;;;;;;;;;;5070025;28;20231;-48
2022/12/07 12:19:04;;;;;;;5.93;1.73;;;;;;;;;;5070173;28;20634;-48
2022/12/07 12:21:32;;;;;;;4.90;1.93;;;;;;;;;;5070279;28;20204;-48
2022/12/07 12:23:59;;;;;;;7.30;2.17;;;;;;;;;;5071668;28;20234;-48
2022/12/07 12:26:27;;;;;;;2.70;1.57;;;;;;;;;;5074057;28;20236;-48
2022/12/07 12:28:55;;;;;;;5.13;2.27;;;;;;;;;;5073825;28;20946;-48
2022/12/07 12:31:38;;;;;;;3.03;1.80;;;;;;;;;;5074340;28;20207;-48
2022/12/07 12:34:24;;;;;;;4.37;1.97;;;;;;;;;;5073892;28;20246;-48
2022/12/07 12:36:50;;;;;;;4.87;1.60;;;;;;;;;;5073550;28;20246;-48
2022/12/07 12:39:18;;;;;;;4.23;1.80;;;;;;;;;;5073764;28;20243;-50
2022/12/07 12:44:45;;;;;;;6.00;1.90;;;;;;;;;;5073464;28;20191;-50
2022/12/07 12:47:26;;;;;;;4.53;1.60;;;;;;;;;;5073183;28;20191;-48
2022/12/07 12:50:16;;;;;;;3.33;1.83;;;;;;;;;;5073035;28;20196;-49
2022/12/07 12:52:53;;;;;;;3.20;2.00;;;;;;;;;;5073412;28;20670;-49
2022/12/07 12:55:23;;;;;;;6.53;1.87;;;;;;;;;;5073423;28;20219;-47
2022/12/07 12:58:04;;;;;;;4.90;1.87;;;;;;;;;;5073342;28;20582;-47
2022/12/07 13:00:31;;;;;;;4.50;1.93;;;;;;;;;;5072962;28;21155;-48
2022/12/07 13:02:59;;;;;;;4.57;1.97;;;;;;;;;;5073461;28;20204;-48
2022/12/07 13:05:27;;;;;;;6.80;2.27;;;;;;;;;;5072942;28;20214;-49
2022/12/07 13:07:55;;;;;;;6.50;2.10;;;;;;;;;;5073118;28;20199;-48
2022/12/07 13:10:22;;;;;;;5.50;2.03;;;;;;;;;;5073131;28;20207;-46
2022/12/07 13:12:56;;;;;;;6.13;2.00;;;;;;;;;;5072813;28;20195;-48
2022/12/07 13:15:32;;;;;;;3.90;1.70;;;;;;;;;;5072888;28;20226;-49
2022/12/07 13:18:00;;;;;;;5.60;2.10;;;;;;;;;;5072825;28;20211;-48
2022/12/07 13:20:45;;;;;;;4.63;2.07;;;;;;;;;;5072560;28;20358;-49
2022/12/07 13:23:13;;;;;;;4.47;1.87;;;;;;;;;;5065817;28;20662;-47
2022/12/07 13:25:45;;;;;;;5.80;2.07;;;;;;;;;;5073026;28;20191;-48
2022/12/07 13:28:16;;;;;;;5.67;2.00;;;;;;;;;;5072858;28;20665;-47
2022/12/07 13:30:45;;;;;;;7.00;2.07;;;;;;;;;;5072677;28;20203;-49
2022/12/07 13:33:12;;;;;;;5.73;1.80;;;;;;;;;;5072712;28;20202;-49
2022/12/07 13:35:38;;;;;;;5.20;2.37;;;;;;;;;;5070679;28;20211;-47
2022/12/07 13:38:05;;;;;;;6.20;2.33;;;;;;;;;;5072694;28;20199;-45
2022/12/07 13:40:33;;;;;;;5.07;2.30;;;;;;;;;;5072568;28;20203;-47
2022/12/07 13:43:00;;;;;;;5.87;2.07;;;;;;;;;;5072570;28;20571;-47
2022/12/07 13:45:47;;;;;;;6.83;2.60;;;;;;;;;;5072451;28;20256;-46
2022/12/07 13:48:15;;;;;;;4.30;1.97;;;;;;;;;;5072364;28;20438;-46
2022/12/07 13:50:41;;;;;;;4.20;1.90;;;;;;;;;;5072401;28;20496;-46
2022/12/07 13:53:12;;;;;;;4.60;1.73;;;;;;;;;;5072213;28;20219;-48
2022/12/07 13:55:44;;;;;;;3.93;1.83;;;;;;;;;;5072330;28;20224;-47
2022/12/07 13:58:10;;;;;;;4.43;1.53;;;;;;;;;;5071939;28;20457;-46
2022/12/07 14:00:36;;;;;;;9.30;1.93;;;;;;;;;;5071942;28;20203;-48
2022/12/07 14:03:04;;;;;;;6.47;1.83;;;;;;;;;;5071844;28;20217;-46
2022/12/07 14:05:31;;;;;;;4.37;1.77;;;;;;;;;;5068268;28;20732;-47
2022/12/07 14:07:57;;;;;;;6.83;1.73;;;;;;;;;;5071857;28;20245;-47
2022/12/07 14:10:24;;;;;;;7.37;2.10;;;;;;;;;;5071923;28;20196;-47
2022/12/07 14:12:52;;;;;;;4.17;1.80;;;;;;;;;;5071929;28;20195;-47
2022/12/07 14:15:20;;;;;;;3.73;2.00;;;;;;;;;;5071582;28;20477;-48
2022/12/07 14:17:51;;;;;;;5.80;2.27;;;;;;;;;;5071824;28;20462;-49
2022/12/07 14:20:31;;;;;;;4.30;1.70;;;;;;;;;;5071669;28;20200;-47
2022/12/07 14:22:57;;;;;;;4.10;1.80;;;;;;;;;;5071640;28;20429;-47
2022/12/07 14:25:25;;;;;;;3.73;1.67;;;;;;;;;;5071881;28;20454;-48
2022/12/07 14:27:55;;;;;;;3.10;1.60;;;;;;;;;;5071658;28;20441;-47
2022/12/07 14:30:22;;;;;;;3.97;1.90;;;;;;;;;;5071904;28;20300;-47
2022/12/07 14:32:51;;;;;;;5.17;2.00;;;;;;;;;;5071373;28;20196;-48
2022/12/07 14:35:18;;;;;;;4.70;1.60;;;;;;;;;;5071220;28;20481;-48
2022/12/07 14:37:46;;;;;;;5.20;1.87;;;;;;;;;;5066714;28;20231;-46
2022/12/07 14:40:13;;;;;;;3.53;1.80;;;;;;;;;;5068724;28;20483;-48
2022/12/07 14:42:39;;;;;;;2.70;1.67;;;;;;;;;;5071357;28;20219;-48
2022/12/07 14:45:13;;;;;;;6.43;2.00;;;;;;;;;;5070428;28;20434;-46
2022/12/07 14:47:39;;;;;;;4.33;1.77;;;;;;;;;;5070793;28;20804;-46